sensor_id;sensor_type;location;lat;lon;timestamp;P1;durP1;ratioP1;P2;durP2;ratioP2
2610;SDS011;5612;51.134;17.058;2022-08-19T00:01:56;11.80;;;10.80;;
2610;SDS011;5612;51.134;17.058;2022-08-19T00:04:27;10.97;;;10.17;;
2610;SDS011;5612;51.134;17.058;2022-08-19T00:06:58;12.03;;;11.13;;
2610;SDS011;5612;51.134;17.058;2022-08-19T00:09:29;12.73;;;11.63;;
2610;SDS011;5612;51.134;17.058;2022-08-19T00:11:58;12.50;;;11.40;;
2610;SDS011;5612;51.134;17.058;2022-08-19T00:14:27;12.50;;;10.90;;
2610;SDS011;5612;51.134;17.058;2022-08-19T00:16:58;11.53;;;10.73;;
2610;SDS011;5612;51.134;17.058;2022-08-19T00:19:29;12.10;;;11.00;;
2610;SDS011;5612;51.134;17.058;2022-08-19T00:21:58;11.97;;;11.07;;
2610;SDS011;5612;51.134;17.058;2022-08-19T00:24:30;13.07;;;12.07;;
2610;SDS011;5612;51.134;17.058;2022-08-19T00:27:01;13.13;;;11.90;;
2610;SDS011;5612;51.134;17.058;2022-08-19T00:29:50;11.67;;;10.73;;
2610;SDS011;5612;51.134;17.058;2022-08-19T00:32:19;12.63;;;11.50;;
2610;SDS011;5612;51.134;17.058;2022-08-19T00:34:49;11.73;;;10.90;;
2610;SDS011;5612;51.134;17.058;2022-08-19T00:37:21;11.57;;;10.53;;
2610;SDS011;5612;51.134;17.058;2022-08-19T00:39:53;11.47;;;10.57;;
2610;SDS011;5612;51.134;17.058;2022-08-19T00:42:23;11.83;;;10.93;;
2610;SDS011;5612;51.134;17.058;2022-08-19T00:44:55;10.87;;;9.90;;
2610;SDS011;5612;51.134;17.058;2022-08-19T00:47:23;11.53;;;10.63;;
2610;SDS011;5612;51.134;17.058;2022-08-19T00:49:54;12.30;;;11.23;;
2610;SDS011;5612;51.134;17.058;2022-08-19T00:52:26;11.70;;;10.80;;
2610;SDS011;5612;51.134;17.058;2022-08-19T00:54:59;13.33;;;11.30;;
2610;SDS011;5612;51.134;17.058;2022-08-19T00:57:29;10.93;;;10.20;;
2610;SDS011;5612;51.134;17.058;2022-08-19T01:00:04;9.93;;;9.13;;
2610;SDS011;5612;51.134;17.058;2022-08-19T01:02:36;10.30;;;9.40;;
2610;SDS011;5612;51.134;17.058;2022-08-19T01:05:06;10.23;;;9.43;;
2610;SDS011;5612;51.134;17.058;2022-08-19T01:07:38;11.23;;;10.33;;
2610;SDS011;5612;51.134;17.058;2022-08-19T01:10:12;11.20;;;10.30;;
2610;SDS011;5612;51.134;17.058;2022-08-19T01:12:45;12.50;;;11.60;;
2610;SDS011;5612;51.134;17.058;2022-08-19T01:15:15;11.47;;;10.57;;
2610;SDS011;5612;51.134;17.058;2022-08-19T01:17:46;10.50;;;9.70;;
2610;SDS011;5612;51.134;17.058;2022-08-19T01:20:17;11.83;;;10.87;;
2610;SDS011;5612;51.134;17.058;2022-08-19T01:22:49;11.20;;;10.30;;
2610;SDS011;5612;51.134;17.058;2022-08-19T01:25:20;10.63;;;9.90;;
2610;SDS011;5612;51.134;17.058;2022-08-19T01:27:54;11.63;;;10.73;;
2610;SDS011;5612;51.134;17.058;2022-08-19T01:30:37;13.73;;;12.60;;
2610;SDS011;5612;51.134;17.058;2022-08-19T01:33:10;12.73;;;11.53;;
2610;SDS011;5612;51.134;17.058;2022-08-19T01:35:39;12.17;;;11.30;;
2610;SDS011;5612;51.134;17.058;2022-08-19T01:38:10;10.60;;;9.90;;
2610;SDS011;5612;51.134;17.058;2022-08-19T01:40:49;11.93;;;10.83;;
2610;SDS011;5612;51.134;17.058;2022-08-19T01:43:18;10.47;;;9.63;;
2610;SDS011;5612;51.134;17.058;2022-08-19T01:45:47;12.00;;;10.93;;
2610;SDS011;5612;51.134;17.058;2022-08-19T01:48:17;12.07;;;11.00;;
2610;SDS011;5612;51.134;17.058;2022-08-19T01:50:46;11.13;;;10.20;;
2610;SDS011;5612;51.134;17.058;2022-08-19T01:53:16;11.30;;;10.50;;
2610;SDS011;5612;51.134;17.058;2022-08-19T01:55:45;11.40;;;10.43;;
2610;SDS011;5612;51.134;17.058;2022-08-19T01:58:16;12.57;;;11.57;;
2610;SDS011;5612;51.134;17.058;2022-08-19T02:00:47;11.33;;;10.53;;
2610;SDS011;5612;51.134;17.058;2022-08-19T02:03:16;10.70;;;9.80;;
2610;SDS011;5612;51.134;17.058;2022-08-19T02:05:45;11.87;;;10.97;;
2610;SDS011;5612;51.134;17.058;2022-08-19T02:08:14;11.40;;;10.50;;
2610;SDS011;5612;51.134;17.058;2022-08-19T02:10:44;12.10;;;11.20;;
2610;SDS011;5612;51.134;17.058;2022-08-19T02:13:13;12.47;;;11.47;;
2610;SDS011;5612;51.134;17.058;2022-08-19T02:15:49;11.00;;;10.10;;
2610;SDS011;5612;51.134;17.058;2022-08-19T02:18:18;12.20;;;11.30;;
2610;SDS011;5612;51.134;17.058;2022-08-19T02:20:53;12.07;;;11.17;;
2610;SDS011;5612;51.134;17.058;2022-08-19T02:23:22;12.13;;;11.13;;
2610;SDS011;5612;51.134;17.058;2022-08-19T02:25:52;13.07;;;12.07;;
2610;SDS011;5612;51.134;17.058;2022-08-19T02:28:21;11.67;;;10.80;;
2610;SDS011;5612;51.134;17.058;2022-08-19T02:30:49;12.53;;;11.50;;
2610;SDS011;5612;51.134;17.058;2022-08-19T02:33:18;11.63;;;10.53;;
2610;SDS011;5612;51.134;17.058;2022-08-19T02:35:47;11.60;;;10.77;;
2610;SDS011;5612;51.134;17.058;2022-08-19T02:38:15;12.27;;;11.27;;
2610;SDS011;5612;51.134;17.058;2022-08-19T02:40:54;12.70;;;11.50;;
2610;SDS011;5612;51.134;17.058;2022-08-19T02:43:25;12.80;;;11.80;;
2610;SDS011;5612;51.134;17.058;2022-08-19T02:45:59;13.20;;;12.20;;
2610;SDS011;5612;51.134;17.058;2022-08-19T02:48:28;13.50;;;12.20;;
2610;SDS011;5612;51.134;17.058;2022-08-19T02:50:58;12.43;;;11.47;;
2610;SDS011;5612;51.134;17.058;2022-08-19T02:53:26;12.83;;;11.83;;
2610;SDS011;5612;51.134;17.058;2022-08-19T02:55:57;12.47;;;11.47;;
2610;SDS011;5612;51.134;17.058;2022-08-19T02:58:26;12.60;;;11.50;;
2610;SDS011;5612;51.134;17.058;2022-08-19T03:00:55;13.27;;;12.23;;
2610;SDS011;5612;51.134;17.058;2022-08-19T03:03:24;13.27;;;12.07;;
2610;SDS011;5612;51.134;17.058;2022-08-19T03:06:02;12.33;;;11.20;;
2610;SDS011;5612;51.134;17.058;2022-08-19T03:08:36;12.03;;;10.93;;
2610;SDS011;5612;51.134;17.058;2022-08-19T03:11:10;12.80;;;11.73;;
2610;SDS011;5612;51.134;17.058;2022-08-19T03:13:41;13.50;;;12.57;;
2610;SDS011;5612;51.134;17.058;2022-08-19T03:16:10;12.63;;;11.70;;
2610;SDS011;5612;51.134;17.058;2022-08-19T03:18:40;12.63;;;11.10;;
2610;SDS011;5612;51.134;17.058;2022-08-19T03:21:14;12.77;;;11.80;;
2610;SDS011;5612;51.134;17.058;2022-08-19T03:23:43;13.23;;;12.13;;
2610;SDS011;5612;51.134;17.058;2022-08-19T03:26:13;12.30;;;11.30;;
2610;SDS011;5612;51.134;17.058;2022-08-19T03:28:42;13.80;;;12.70;;
2610;SDS011;5612;51.134;17.058;2022-08-19T03:31:24;13.60;;;11.17;;
2610;SDS011;5612;51.134;17.058;2022-08-19T03:34:15;12.97;;;11.80;;
2610;SDS011;5612;51.134;17.058;2022-08-19T03:36:46;12.70;;;11.50;;
2610;SDS011;5612;51.134;17.058;2022-08-19T03:39:15;13.37;;;12.37;;
2610;SDS011;5612;51.134;17.058;2022-08-19T03:41:46;14.60;;;13.27;;
2610;SDS011;5612;51.134;17.058;2022-08-19T03:44:36;14.20;;;13.20;;
2610;SDS011;5612;51.134;17.058;2022-08-19T03:47:05;14.13;;;13.03;;
2610;SDS011;5612;51.134;17.058;2022-08-19T03:49:34;14.23;;;12.93;;
2610;SDS011;5612;51.134;17.058;2022-08-19T03:52:03;13.47;;;12.17;;
2610;SDS011;5612;51.134;17.058;2022-08-19T03:54:34;13.97;;;12.83;;
2610;SDS011;5612;51.134;17.058;2022-08-19T03:57:06;12.83;;;11.53;;
2610;SDS011;5612;51.134;17.058;2022-08-19T03:59:36;12.73;;;11.70;;
2610;SDS011;5612;51.134;17.058;2022-08-19T04:02:07;14.60;;;13.60;;
2610;SDS011;5612;51.134;17.058;2022-08-19T04:04:38;15.50;;;14.07;;
2610;SDS011;5612;51.134;17.058;2022-08-19T04:07:09;14.17;;;13.17;;
2610;SDS011;5612;51.134;17.058;2022-08-19T04:09:39;14.40;;;13.30;;
2610;SDS011;5612;51.134;17.058;2022-08-19T04:12:09;15.20;;;13.87;;
2610;SDS011;5612;51.134;17.058;2022-08-19T04:14:38;14.90;;;13.40;;
2610;SDS011;5612;51.134;17.058;2022-08-19T04:17:07;19.67;;;13.70;;
2610;SDS011;5612;51.134;17.058;2022-08-19T04:19:36;15.17;;;13.93;;
2610;SDS011;5612;51.134;17.058;2022-08-19T04:22:05;15.40;;;13.97;;
2610;SDS011;5612;51.134;17.058;2022-08-19T04:24:34;15.00;;;13.73;;
2610;SDS011;5612;51.134;17.058;2022-08-19T04:27:03;16.77;;;14.50;;
2610;SDS011;5612;51.134;17.058;2022-08-19T04:29:34;15.17;;;13.80;;
2610;SDS011;5612;51.134;17.058;2022-08-19T04:32:06;15.00;;;13.90;;
2610;SDS011;5612;51.134;17.058;2022-08-19T04:34:35;14.13;;;13.00;;
2610;SDS011;5612;51.134;17.058;2022-08-19T04:37:24;17.00;;;15.37;;
2610;SDS011;5612;51.134;17.058;2022-08-19T04:40:01;17.27;;;15.40;;
2610;SDS011;5612;51.134;17.058;2022-08-19T04:42:49;15.60;;;14.00;;
2610;SDS011;5612;51.134;17.058;2022-08-19T04:45:20;16.90;;;15.60;;
2610;SDS011;5612;51.134;17.058;2022-08-19T04:47:49;17.90;;;16.50;;
2610;SDS011;5612;51.134;17.058;2022-08-19T04:50:39;16.63;;;15.13;;
2610;SDS011;5612;51.134;17.058;2022-08-19T04:53:11;15.60;;;14.20;;
2610;SDS011;5612;51.134;17.058;2022-08-19T04:55:40;18.00;;;16.50;;
2610;SDS011;5612;51.134;17.058;2022-08-19T04:58:09;18.03;;;16.43;;
2610;SDS011;5612;51.134;17.058;2022-08-19T05:00:40;17.33;;;15.63;;
2610;SDS011;5612;51.134;17.058;2022-08-19T05:03:09;16.40;;;15.00;;
2610;SDS011;5612;51.134;17.058;2022-08-19T05:05:38;17.07;;;15.53;;
2610;SDS011;5612;51.134;17.058;2022-08-19T05:08:10;16.83;;;15.33;;
2610;SDS011;5612;51.134;17.058;2022-08-19T05:10:40;18.47;;;16.67;;
2610;SDS011;5612;51.134;17.058;2022-08-19T05:13:09;17.60;;;15.80;;
2610;SDS011;5612;51.134;17.058;2022-08-19T05:15:40;17.77;;;15.97;;
2610;SDS011;5612;51.134;17.058;2022-08-19T05:18:08;16.87;;;15.47;;
2610;SDS011;5612;51.134;17.058;2022-08-19T05:20:57;20.73;;;18.73;;
2610;SDS011;5612;51.134;17.058;2022-08-19T05:23:43;16.37;;;15.07;;
2610;SDS011;5612;51.134;17.058;2022-08-19T05:26:12;17.37;;;15.97;;
2610;SDS011;5612;51.134;17.058;2022-08-19T05:28:41;16.33;;;15.13;;
2610;SDS011;5612;51.134;17.058;2022-08-19T05:31:11;18.60;;;16.67;;
2610;SDS011;5612;51.134;17.058;2022-08-19T05:33:40;16.23;;;14.93;;
2610;SDS011;5612;51.134;17.058;2022-08-19T05:36:09;17.47;;;15.87;;
2610;SDS011;5612;51.134;17.058;2022-08-19T05:38:37;15.50;;;14.40;;
2610;SDS011;5612;51.134;17.058;2022-08-19T05:41:07;17.33;;;15.73;;
2610;SDS011;5612;51.134;17.058;2022-08-19T05:43:36;17.67;;;15.93;;
2610;SDS011;5612;51.134;17.058;2022-08-19T05:46:06;18.27;;;16.43;;
2610;SDS011;5612;51.134;17.058;2022-08-19T05:48:37;16.40;;;14.87;;
2610;SDS011;5612;51.134;17.058;2022-08-19T05:51:06;16.20;;;14.90;;
2610;SDS011;5612;51.134;17.058;2022-08-19T05:53:36;19.27;;;17.47;;
2610;SDS011;5612;51.134;17.058;2022-08-19T05:56:05;17.90;;;16.50;;
2610;SDS011;5612;51.134;17.058;2022-08-19T05:58:34;16.90;;;15.40;;
2610;SDS011;5612;51.134;17.058;2022-08-19T06:01:04;17.13;;;15.80;;
2610;SDS011;5612;51.134;17.058;2022-08-19T06:03:40;15.87;;;14.77;;
2610;SDS011;5612;51.134;17.058;2022-08-19T06:06:10;17.73;;;16.23;;
2610;SDS011;5612;51.134;17.058;2022-08-19T06:08:40;18.37;;;16.87;;
2610;SDS011;5612;51.134;17.058;2022-08-19T06:11:16;17.20;;;15.80;;
2610;SDS011;5612;51.134;17.058;2022-08-19T06:13:47;17.10;;;15.53;;
2610;SDS011;5612;51.134;17.058;2022-08-19T06:16:25;16.33;;;15.00;;
2610;SDS011;5612;51.134;17.058;2022-08-19T06:18:57;17.90;;;16.50;;
2610;SDS011;5612;51.134;17.058;2022-08-19T06:21:28;15.93;;;14.73;;
2610;SDS011;5612;51.134;17.058;2022-08-19T06:23:58;17.23;;;15.37;;
2610;SDS011;5612;51.134;17.058;2022-08-19T06:26:27;17.97;;;16.47;;
2610;SDS011;5612;51.134;17.058;2022-08-19T06:28:56;17.10;;;15.77;;
2610;SDS011;5612;51.134;17.058;2022-08-19T06:31:26;17.80;;;16.10;;
2610;SDS011;5612;51.134;17.058;2022-08-19T06:33:57;16.30;;;14.90;;
2610;SDS011;5612;51.134;17.058;2022-08-19T06:36:26;18.67;;;14.67;;
2610;SDS011;5612;51.134;17.058;2022-08-19T06:38:58;16.90;;;15.47;;
2610;SDS011;5612;51.134;17.058;2022-08-19T06:41:28;16.87;;;15.27;;
2610;SDS011;5612;51.134;17.058;2022-08-19T06:43:57;17.23;;;15.60;;
2610;SDS011;5612;51.134;17.058;2022-08-19T06:46:26;16.03;;;14.63;;
2610;SDS011;5612;51.134;17.058;2022-08-19T06:49:02;16.13;;;14.50;;
2610;SDS011;5612;51.134;17.058;2022-08-19T06:51:31;17.50;;;15.97;;
2610;SDS011;5612;51.134;17.058;2022-08-19T06:54:08;16.00;;;14.50;;
2610;SDS011;5612;51.134;17.058;2022-08-19T06:56:45;16.33;;;14.93;;
2610;SDS011;5612;51.134;17.058;2022-08-19T06:59:15;17.03;;;15.50;;
2610;SDS011;5612;51.134;17.058;2022-08-19T07:01:46;15.13;;;14.03;;
2610;SDS011;5612;51.134;17.058;2022-08-19T07:04:18;15.30;;;14.10;;
2610;SDS011;5612;51.134;17.058;2022-08-19T07:06:49;15.83;;;14.43;;
2610;SDS011;5612;51.134;17.058;2022-08-19T07:09:40;14.77;;;13.67;;
2610;SDS011;5612;51.134;17.058;2022-08-19T07:12:26;15.00;;;13.70;;
2610;SDS011;5612;51.134;17.058;2022-08-19T07:14:57;15.10;;;13.50;;
2610;SDS011;5612;51.134;17.058;2022-08-19T07:17:29;13.80;;;12.60;;
2610;SDS011;5612;51.134;17.058;2022-08-19T07:20:06;13.00;;;12.00;;
2610;SDS011;5612;51.134;17.058;2022-08-19T07:22:35;12.82;;;11.82;;
2610;SDS011;5612;51.134;17.058;2022-08-19T07:25:09;12.70;;;11.55;;
2610;SDS011;5612;51.134;17.058;2022-08-19T07:27:42;13.20;;;12.00;;
2610;SDS011;5612;51.134;17.058;2022-08-19T07:30:19;12.68;;;11.13;;
2610;SDS011;5612;51.134;17.058;2022-08-19T07:32:51;13.00;;;11.77;;
2610;SDS011;5612;51.134;17.058;2022-08-19T07:35:22;12.80;;;11.80;;
2610;SDS011;5612;51.134;17.058;2022-08-19T07:37:52;12.15;;;11.00;;
2610;SDS011;5612;51.134;17.058;2022-08-19T07:40:21;14.25;;;10.82;;
2610;SDS011;5612;51.134;17.058;2022-08-19T07:42:49;12.20;;;11.15;;
2610;SDS011;5612;51.134;17.058;2022-08-19T07:45:18;12.27;;;11.00;;
2610;SDS011;5612;51.134;17.058;2022-08-19T07:47:47;11.60;;;10.63;;
2610;SDS011;5612;51.134;17.058;2022-08-19T07:50:16;12.40;;;11.23;;
2610;SDS011;5612;51.134;17.058;2022-08-19T07:52:48;11.00;;;10.02;;
2610;SDS011;5612;51.134;17.058;2022-08-19T07:55:19;10.50;;;9.60;;
2610;SDS011;5612;51.134;17.058;2022-08-19T07:58:08;10.35;;;9.63;;
2610;SDS011;5612;51.134;17.058;2022-08-19T08:00:39;11.57;;;9.63;;
2610;SDS011;5612;51.134;17.058;2022-08-19T08:03:09;9.93;;;9.10;;
2610;SDS011;5612;51.134;17.058;2022-08-19T08:05:38;10.52;;;9.70;;
2610;SDS011;5612;51.134;17.058;2022-08-19T08:08:25;11.68;;;10.57;;
2610;SDS011;5612;51.134;17.058;2022-08-19T08:11:13;11.32;;;10.43;;
2610;SDS011;5612;51.134;17.058;2022-08-19T08:13:46;10.95;;;10.15;;
2610;SDS011;5612;51.134;17.058;2022-08-19T08:16:26;10.18;;;9.38;;
2610;SDS011;5612;51.134;17.058;2022-08-19T08:18:57;10.95;;;10.05;;
2610;SDS011;5612;51.134;17.058;2022-08-19T08:21:26;9.38;;;8.73;;
2610;SDS011;5612;51.134;17.058;2022-08-19T08:23:57;10.10;;;9.30;;
2610;SDS011;5612;51.134;17.058;2022-08-19T08:26:31;11.32;;;10.27;;
2610;SDS011;5612;51.134;17.058;2022-08-19T08:28:59;10.68;;;9.77;;
2610;SDS011;5612;51.134;17.058;2022-08-19T08:31:38;9.40;;;8.60;;
2610;SDS011;5612;51.134;17.058;2022-08-19T08:34:08;8.98;;;8.15;;
2610;SDS011;5612;51.134;17.058;2022-08-19T08:36:38;9.32;;;8.60;;
2610;SDS011;5612;51.134;17.058;2022-08-19T08:39:15;9.98;;;9.02;;
2610;SDS011;5612;51.134;17.058;2022-08-19T08:41:47;8.93;;;8.23;;
2610;SDS011;5612;51.134;17.058;2022-08-19T08:44:22;10.00;;;9.25;;
2610;SDS011;5612;51.134;17.058;2022-08-19T08:46:56;10.05;;;8.35;;
2610;SDS011;5612;51.134;17.058;2022-08-19T08:49:28;11.15;;;10.13;;
2610;SDS011;5612;51.134;17.058;2022-08-19T08:52:03;12.00;;;9.60;;
2610;SDS011;5612;51.134;17.058;2022-08-19T08:54:36;9.52;;;8.85;;
2610;SDS011;5612;51.134;17.058;2022-08-19T08:57:22;9.27;;;8.38;;
2610;SDS011;5612;51.134;17.058;2022-08-19T09:00:05;9.95;;;9.10;;
2610;SDS011;5612;51.134;17.058;2022-08-19T09:02:41;9.80;;;8.90;;
2610;SDS011;5612;51.134;17.058;2022-08-19T09:05:16;9.18;;;8.38;;
2610;SDS011;5612;51.134;17.058;2022-08-19T09:07:53;9.40;;;8.48;;
2610;SDS011;5612;51.134;17.058;2022-08-19T09:10:31;10.25;;;9.45;;
2610;SDS011;5612;51.134;17.058;2022-08-19T09:13:12;8.23;;;7.57;;
2610;SDS011;5612;51.134;17.058;2022-08-19T09:15:51;9.95;;;8.88;;
2610;SDS011;5612;51.134;17.058;2022-08-19T09:18:38;8.82;;;7.93;;
2610;SDS011;5612;51.134;17.058;2022-08-19T09:21:09;8.93;;;8.20;;
2610;SDS011;5612;51.134;17.058;2022-08-19T09:23:38;8.65;;;7.80;;
2610;SDS011;5612;51.134;17.058;2022-08-19T09:26:10;8.40;;;7.70;;
2610;SDS011;5612;51.134;17.058;2022-08-19T09:28:42;8.80;;;7.82;;
2610;SDS011;5612;51.134;17.058;2022-08-19T09:31:15;8.32;;;7.80;;
2610;SDS011;5612;51.134;17.058;2022-08-19T09:33:45;10.48;;;7.35;;
2610;SDS011;5612;51.134;17.058;2022-08-19T09:36:18;8.02;;;7.32;;
2610;SDS011;5612;51.134;17.058;2022-08-19T09:39:00;7.78;;;7.38;;
2610;SDS011;5612;51.134;17.058;2022-08-19T09:41:31;8.00;;;6.75;;
2610;SDS011;5612;51.134;17.058;2022-08-19T09:44:07;9.30;;;8.10;;
2610;SDS011;5612;51.134;17.058;2022-08-19T09:46:38;8.73;;;7.43;;
2610;SDS011;5612;51.134;17.058;2022-08-19T09:49:07;7.53;;;7.03;;
2610;SDS011;5612;51.134;17.058;2022-08-19T09:51:38;7.70;;;7.20;;
2610;SDS011;5612;51.134;17.058;2022-08-19T09:54:16;8.68;;;7.88;;
2610;SDS011;5612;51.134;17.058;2022-08-19T09:56:52;11.98;;;8.65;;
2610;SDS011;5612;51.134;17.058;2022-08-19T09:59:21;7.70;;;7.07;;
2610;SDS011;5612;51.134;17.058;2022-08-19T10:01:50;7.72;;;7.18;;
2610;SDS011;5612;51.134;17.058;2022-08-19T10:04:19;8.88;;;8.18;;
2610;SDS011;5612;51.134;17.058;2022-08-19T10:06:50;9.43;;;8.48;;
2610;SDS011;5612;51.134;17.058;2022-08-19T10:09:23;8.13;;;7.15;;
2610;SDS011;5612;51.134;17.058;2022-08-19T10:12:02;8.38;;;7.65;;
2610;SDS011;5612;51.134;17.058;2022-08-19T10:14:36;7.40;;;6.90;;
2610;SDS011;5612;51.134;17.058;2022-08-19T10:17:05;6.95;;;6.55;;
2610;SDS011;5612;51.134;17.058;2022-08-19T10:19:46;6.85;;;6.32;;
2610;SDS011;5612;51.134;17.058;2022-08-19T10:22:21;6.90;;;6.18;;
2610;SDS011;5612;51.134;17.058;2022-08-19T10:24:51;7.00;;;6.40;;
2610;SDS011;5612;51.134;17.058;2022-08-19T10:27:22;9.50;;;7.10;;
2610;SDS011;5612;51.134;17.058;2022-08-19T10:29:52;7.95;;;7.20;;
2610;SDS011;5612;51.134;17.058;2022-08-19T10:32:20;6.63;;;6.07;;
2610;SDS011;5612;51.134;17.058;2022-08-19T10:34:59;6.57;;;6.07;;
2610;SDS011;5612;51.134;17.058;2022-08-19T10:37:31;8.07;;;7.30;;
2610;SDS011;5612;51.134;17.058;2022-08-19T10:40:00;6.35;;;5.95;;
2610;SDS011;5612;51.134;17.058;2022-08-19T10:42:32;7.90;;;7.22;;
2610;SDS011;5612;51.134;17.058;2022-08-19T10:45:03;7.93;;;7.28;;
2610;SDS011;5612;51.134;17.058;2022-08-19T10:47:35;7.25;;;6.35;;
2610;SDS011;5612;51.134;17.058;2022-08-19T10:50:07;6.60;;;6.00;;
2610;SDS011;5612;51.134;17.058;2022-08-19T10:53:06;7.00;;;6.55;;
2610;SDS011;5612;51.134;17.058;2022-08-19T10:55:38;6.22;;;5.93;;
2610;SDS011;5612;51.134;17.058;2022-08-19T10:58:28;6.40;;;5.85;;
2610;SDS011;5612;51.134;17.058;2022-08-19T11:00:58;5.85;;;5.28;;
2610;SDS011;5612;51.134;17.058;2022-08-19T11:03:27;6.03;;;5.63;;
2610;SDS011;5612;51.134;17.058;2022-08-19T11:05:57;6.13;;;5.63;;
2610;SDS011;5612;51.134;17.058;2022-08-19T11:08:27;6.97;;;6.38;;
2610;SDS011;5612;51.134;17.058;2022-08-19T11:10:59;7.07;;;5.28;;
2610;SDS011;5612;51.134;17.058;2022-08-19T11:13:32;7.22;;;5.07;;
2610;SDS011;5612;51.134;17.058;2022-08-19T11:16:04;6.10;;;5.60;;
2610;SDS011;5612;51.134;17.058;2022-08-19T11:18:36;5.82;;;5.43;;
2610;SDS011;5612;51.134;17.058;2022-08-19T11:21:07;6.10;;;5.60;;
2610;SDS011;5612;51.134;17.058;2022-08-19T11:23:38;6.70;;;6.25;;
2610;SDS011;5612;51.134;17.058;2022-08-19T11:26:10;6.00;;;5.45;;
2610;SDS011;5612;51.134;17.058;2022-08-19T11:28:42;5.70;;;5.40;;
2610;SDS011;5612;51.134;17.058;2022-08-19T11:31:13;7.68;;;5.07;;
2610;SDS011;5612;51.134;17.058;2022-08-19T11:33:44;7.13;;;6.55;;
2610;SDS011;5612;51.134;17.058;2022-08-19T11:36:13;6.75;;;6.25;;
2610;SDS011;5612;51.134;17.058;2022-08-19T11:38:43;6.32;;;5.82;;
2610;SDS011;5612;51.134;17.058;2022-08-19T11:41:15;6.07;;;5.53;;
2610;SDS011;5612;51.134;17.058;2022-08-19T11:43:47;4.95;;;4.65;;
2610;SDS011;5612;51.134;17.058;2022-08-19T11:46:19;4.97;;;4.57;;
2610;SDS011;5612;51.134;17.058;2022-08-19T11:48:50;5.18;;;4.80;;
2610;SDS011;5612;51.134;17.058;2022-08-19T11:51:21;4.47;;;4.15;;
2610;SDS011;5612;51.134;17.058;2022-08-19T11:53:52;6.57;;;5.40;;
2610;SDS011;5612;51.134;17.058;2022-08-19T11:56:23;7.50;;;4.85;;
2610;SDS011;5612;51.134;17.058;2022-08-19T11:58:54;6.43;;;4.85;;
2610;SDS011;5612;51.134;17.058;2022-08-19T12:01:24;4.53;;;4.22;;
2610;SDS011;5612;51.134;17.058;2022-08-19T12:03:54;4.18;;;3.80;;
2610;SDS011;5612;51.134;17.058;2022-08-19T12:06:24;4.63;;;4.32;;
2610;SDS011;5612;51.134;17.058;2022-08-19T12:08:56;3.65;;;3.45;;
2610;SDS011;5612;51.134;17.058;2022-08-19T12:11:26;4.00;;;3.70;;
2610;SDS011;5612;51.134;17.058;2022-08-19T12:14:01;4.00;;;3.70;;
2610;SDS011;5612;51.134;17.058;2022-08-19T12:16:31;3.90;;;3.33;;
2610;SDS011;5612;51.134;17.058;2022-08-19T12:19:19;3.50;;;3.20;;
2610;SDS011;5612;51.134;17.058;2022-08-19T12:21:52;4.55;;;3.90;;
2610;SDS011;5612;51.134;17.058;2022-08-19T12:24:27;4.07;;;3.78;;
2610;SDS011;5612;51.134;17.058;2022-08-19T12:26:59;4.47;;;4.07;;
2610;SDS011;5612;51.134;17.058;2022-08-19T12:29:31;8.35;;;5.88;;
2610;SDS011;5612;51.134;17.058;2022-08-19T12:32:00;7.05;;;4.10;;
2610;SDS011;5612;51.134;17.058;2022-08-19T12:34:30;4.22;;;3.85;;
2610;SDS011;5612;51.134;17.058;2022-08-19T12:37:01;10.65;;;4.70;;
2610;SDS011;5612;51.134;17.058;2022-08-19T12:39:33;4.88;;;4.40;;
2610;SDS011;5612;51.134;17.058;2022-08-19T12:42:04;4.20;;;3.78;;
2610;SDS011;5612;51.134;17.058;2022-08-19T12:44:35;4.60;;;4.20;;
2610;SDS011;5612;51.134;17.058;2022-08-19T12:47:08;4.82;;;4.28;;
2610;SDS011;5612;51.134;17.058;2022-08-19T12:49:40;5.13;;;4.57;;
2610;SDS011;5612;51.134;17.058;2022-08-19T12:52:20;4.20;;;3.80;;
2610;SDS011;5612;51.134;17.058;2022-08-19T12:54:50;5.30;;;3.72;;
2610;SDS011;5612;51.134;17.058;2022-08-19T12:57:21;4.13;;;3.92;;
2610;SDS011;5612;51.134;17.058;2022-08-19T13:00:00;3.95;;;3.63;;
2610;SDS011;5612;51.134;17.058;2022-08-19T13:02:33;4.68;;;4.05;;
2610;SDS011;5612;51.134;17.058;2022-08-19T13:05:05;4.18;;;3.88;;
2610;SDS011;5612;51.134;17.058;2022-08-19T13:07:38;4.30;;;3.97;;
2610;SDS011;5612;51.134;17.058;2022-08-19T13:10:08;3.90;;;3.40;;
2610;SDS011;5612;51.134;17.058;2022-08-19T13:12:39;4.72;;;3.45;;
2610;SDS011;5612;51.134;17.058;2022-08-19T13:15:10;4.53;;;4.13;;
2610;SDS011;5612;51.134;17.058;2022-08-19T13:17:45;4.80;;;3.28;;
2610;SDS011;5612;51.134;17.058;2022-08-19T13:20:17;3.92;;;3.63;;
2610;SDS011;5612;51.134;17.058;2022-08-19T13:22:48;5.75;;;4.10;;
2610;SDS011;5612;51.134;17.058;2022-08-19T13:25:18;5.28;;;4.20;;
2610;SDS011;5612;51.134;17.058;2022-08-19T13:27:48;4.78;;;3.05;;
2610;SDS011;5612;51.134;17.058;2022-08-19T13:30:19;4.60;;;2.72;;
2610;SDS011;5612;51.134;17.058;2022-08-19T13:33:06;6.47;;;3.28;;
2610;SDS011;5612;51.134;17.058;2022-08-19T13:35:42;3.53;;;3.22;;
2610;SDS011;5612;51.134;17.058;2022-08-19T13:38:15;6.40;;;3.22;;
2610;SDS011;5612;51.134;17.058;2022-08-19T13:40:48;4.47;;;4.07;;
2610;SDS011;5612;51.134;17.058;2022-08-19T13:43:21;3.72;;;3.42;;
2610;SDS011;5612;51.134;17.058;2022-08-19T13:45:54;7.68;;;3.78;;
2610;SDS011;5612;51.134;17.058;2022-08-19T13:48:25;5.10;;;3.67;;
2610;SDS011;5612;51.134;17.058;2022-08-19T13:50:54;6.03;;;3.90;;
2610;SDS011;5612;51.134;17.058;2022-08-19T13:53:23;6.72;;;4.00;;
2610;SDS011;5612;51.134;17.058;2022-08-19T13:55:52;5.45;;;3.53;;
2610;SDS011;5612;51.134;17.058;2022-08-19T13:58:21;4.70;;;4.30;;
2610;SDS011;5612;51.134;17.058;2022-08-19T14:00:50;5.50;;;3.40;;
2610;SDS011;5612;51.134;17.058;2022-08-19T14:03:20;4.47;;;4.18;;
2610;SDS011;5612;51.134;17.058;2022-08-19T14:05:50;3.80;;;3.50;;
2610;SDS011;5612;51.134;17.058;2022-08-19T14:08:19;4.35;;;4.00;;
2610;SDS011;5612;51.134;17.058;2022-08-19T14:10:48;4.40;;;4.00;;
2610;SDS011;5612;51.134;17.058;2022-08-19T14:13:19;12.30;;;4.53;;
2610;SDS011;5612;51.134;17.058;2022-08-19T14:15:49;7.03;;;4.20;;
2610;SDS011;5612;51.134;17.058;2022-08-19T14:18:21;7.78;;;4.53;;
2610;SDS011;5612;51.134;17.058;2022-08-19T14:20:54;6.35;;;4.18;;
2610;SDS011;5612;51.134;17.058;2022-08-19T14:23:24;9.95;;;4.28;;
2610;SDS011;5612;51.134;17.058;2022-08-19T14:25:53;4.53;;;4.18;;
2610;SDS011;5612;51.134;17.058;2022-08-19T14:28:31;4.82;;;4.10;;
2610;SDS011;5612;51.134;17.058;2022-08-19T14:31:00;4.22;;;3.83;;
2610;SDS011;5612;51.134;17.058;2022-08-19T14:33:30;4.53;;;3.97;;
2610;SDS011;5612;51.134;17.058;2022-08-19T14:35:59;5.10;;;4.57;;
2610;SDS011;5612;51.134;17.058;2022-08-19T14:38:28;4.50;;;4.10;;
2610;SDS011;5612;51.134;17.058;2022-08-19T14:41:08;6.90;;;4.18;;
2610;SDS011;5612;51.134;17.058;2022-08-19T14:43:39;5.10;;;4.70;;
2610;SDS011;5612;51.134;17.058;2022-08-19T14:46:09;4.70;;;4.40;;
2610;SDS011;5612;51.134;17.058;2022-08-19T14:48:43;5.22;;;4.85;;
2610;SDS011;5612;51.134;17.058;2022-08-19T14:51:17;5.38;;;4.82;;
2610;SDS011;5612;51.134;17.058;2022-08-19T14:53:47;4.93;;;4.63;;
2610;SDS011;5612;51.134;17.058;2022-08-19T14:56:17;5.30;;;4.90;;
2610;SDS011;5612;51.134;17.058;2022-08-19T14:58:47;4.85;;;4.45;;
2610;SDS011;5612;51.134;17.058;2022-08-19T15:01:18;5.90;;;4.95;;
2610;SDS011;5612;51.134;17.058;2022-08-19T15:03:50;5.88;;;5.32;;
2610;SDS011;5612;51.134;17.058;2022-08-19T15:06:20;7.22;;;5.38;;
2610;SDS011;5612;51.134;17.058;2022-08-19T15:08:50;6.88;;;5.80;;
2610;SDS011;5612;51.134;17.058;2022-08-19T15:11:21;6.28;;;5.68;;
2610;SDS011;5612;51.134;17.058;2022-08-19T15:13:53;7.63;;;6.85;;
2610;SDS011;5612;51.134;17.058;2022-08-19T15:16:23;7.53;;;7.00;;